NCAR-RAP Real-Time Weather Data

Output produced by METARs form (17 October 2017  22:24 UTC)
found at http://weather.rap.ucar.edu/surface/
 
KDCA 172152Z 16003KT 10SM FEW250 16/01 A3030 RMK AO2 SLP261 T01560006
KDCA 172052Z 00000KT 10SM FEW250 17/M01 A3030 RMK AO2 SLP261 T01671006 56012
KDCA 171952Z 04004KT 10SM FEW250 17/00 A3031 RMK AO2 SLP264 T01720000
KDCA 171852Z COR 00000KT 10SM FEW250 17/01 A3031 RMK AO2 SLP266 T01720006
KDCA 171752Z COR 06004KT 10SM CLR 16/01 A3034 RMK AO2 SLP273 T01560006 10161 20089 58020
KDCA 171652Z 34008KT 10SM CLR 16/02 A3037 RMK AO2 SLP283 T01560017
KDCA 171552Z VRB06KT 10SM CLR 14/01 A3039 RMK AO2 SLP291 T01440006
KDCA 171452Z 03012KT 10SM CLR 13/01 A3040 RMK AO2 SLP293 T01280006 50009
KDCA 171352Z 03009KT 10SM CLR 12/02 A3041 RMK AO2 SLP296 T01170017
KDCA 171252Z 04008KT 10SM CLR 10/02 A3040 RMK AO2 SLP293 T01000022
KDCA 171152Z 02008KT 10SM FEW030 09/02 A3037 RMK AO2 SLP284 T00890017 10106 20078 51019
KDCA 171052Z 36006KT 10SM FEW030 08/03 A3035 RMK AO2 SLP278 T00830028
KDCA 170952Z 36006KT 10SM CLR 09/02 A3033 RMK AO2 SLP272 T00890022
KDCA 170852Z 02011KT 10SM CLR 09/02 A3031 RMK AO2 SLP265 T00940017 53013
KDCA 170752Z 36008KT 10SM CLR 09/03 A3030 RMK AO2 SLP259 T00940033
KDCA 170652Z 34008KT 10SM CLR 10/04 A3029 RMK AO2 SLP255 T01000039
KDCA 170552Z 33006KT 10SM CLR 10/03 A3028 RMK AO2 SLP253 T01000033 10150 20100 51010
KDCA 170452Z 33009KT 10SM CLR 11/03 A3027 RMK AO2 SLP249 T01110033 402280111
KDCA 170352Z 32012KT 10SM CLR 12/03 A3026 RMK AO2 SLP248 T01220033
KDCA 170252Z 33010KT 10SM CLR 13/03 A3025 RMK AO2 SLP243 T01280033 51021
KDCA 170152Z 32012KT 10SM CLR 14/03 A3023 RMK AO2 SLP236 T01390028
KDCA 170052Z 34009KT 10SM FEW250 14/02 A3021 RMK AO2 SLP229 T01440022
KDCA 162352Z 32008KT 10SM FEW070 SCT250 15/02 A3019 RMK AO2 SLP221 T01500022 10189 20150 53023
KDCA 162252Z 33011KT 10SM FEW065 SCT250 16/02 A3015 RMK AO2 SLP210 T01610022
KDCA 162152Z 32015G19KT 10SM FEW060 SCT250 17/02 A3013 RMK AO2 SLP202 T01720017
KDCA 162052Z 32015G22KT 10SM FEW055 SCT250 18/02 A3012 RMK AO2 SLP198 T01830022 53005
KDCA 161952Z 33017G21KT 10SM FEW050 BKN250 18/03 A3011 RMK AO2 SLP195 T01830033
KDCA 161852Z 31015KT 10SM SCT050 OVC250 17/05 A3010 RMK AO2 PK WND 33026/1756 SLP193 T01670050
KDCA 161752Z 32019G26KT 10SM SCT045 OVC250 18/07 A3010 RMK AO2 PK WND 33026/1750 SLP192 T01780067 10183 20156 58001
KDCA 161652Z 32015G21KT 10SM FEW045 FEW160 OVC250 16/07 A3011 RMK AO2 SLP195 T01610067
KDCA 161552Z 33014G22KT 10SM SCT045 BKN160 OVC250 17/07 A3010 RMK AO2 PK WND 33027/1532 SLP190 T01720072
KDCA 161452Z 32011KT 10SM FEW045 FEW110 OVC160 17/08 A3010 RMK AO2 PK WND 35027/1423 SLP193 T01670083 51027
KDCA 161352Z 34010KT 10SM SCT045 SCT110 BKN160 17/12 A3007 RMK AO2 SLP183 T01670117
KDCA 161252Z 31009KT 10SM SCT065 SCT110 BKN150 17/12 A3007 RMK AO2 SLP181 T01670117
KDCA 161152Z 32005KT 10SM SCT065 BKN090 BKN120 17/12 A3002 RMK AO2 RAE11 SLP166 P0000 60010 70010 T01670122 10217 20167 53016
KDCA 161052Z 33010G16KT 10SM -RA BKN060 BKN090 OVC110 17/13 A3001 RMK AO2 RAE04B50 SLP161 P0000 T01720128
KDCA 160952Z 33005KT 10SM -RA FEW050 OVC090 17/15 A2998 RMK AO2 SLP151 P0003 T01720150
KDCA 160852Z 34006KT 10SM -RA BKN055 BKN065 OVC090 17/16 A2998 RMK AO2 SLP150 P0003 60007 T01720156 51017
KDCA 160752Z 33009KT 4SM RA OVC047 17/14 A2996 RMK AO2 SLP146 P0004 T01720144
KDCA 160652Z 33013G21KT 10SM -RA OVC038 21/14 A2994 RMK AO2 RAB25 SLP139 P0000 T02060144
KDCA 160552Z 33018G25KT 10SM FEW021 BKN060 OVC080 22/16 A2993 RMK AO2 SLP133 60000 T02170161 10233 20217 53022
KDCA 160452Z 26006KT 10SM FEW045 OVC080 23/20 A2990 RMK AO2 RAB04E34 SLP124 P0000 T02280200 402610178
KDCA 160352Z 22010KT 10SM BKN085 OVC100 23/19 A2987 RMK AO2 SLP113 T02280194
KDCA 160252Z 20009KT 10SM SCT100 22/19 A2986 RMK AO2 SLP111 T02220189 57007
KDCA 160152Z 20010KT 10SM SCT150 23/19 A2987 RMK AO2 SLP114 T02280189
KDCA 160052Z 20010KT 10SM CLR 23/19 A2987 RMK AO2 SLP115 T02280194
KDCA 152352Z 19009KT 10SM CLR 23/19 A2988 RMK AO2 SLP118 T02280194 10261 20228 56007
KDCA 152252Z 19008KT 10SM CLR 23/20 A2988 RMK AO2 SLP119 T02330200
KDCA 152152Z 18007KT 10SM CLR 24/20 A2989 RMK AO2 SLP121 T02440200
KDCA 152052Z 18011KT 10SM FEW030 26/19 A2990 RMK AO2 SLP125 T02560194 56024
KDCA 151952Z 20012KT 10SM FEW026 26/19 A2993 RMK AO2 SLP134 T02560194
KDCA 151928Z 19011KT 10SM SCT026 25/19 A2993 RMK AO2 T02500194
KDCA 151852Z 19010KT 10SM BKN022 24/19 A2994 RMK AO2 SLP139 T02440189
KDCA 151826Z 19010G19KT 10SM BKN022 24/19 A2996 RMK AO2 T02440194
KDCA 151752Z 20012G17KT 10SM OVC022 23/19 A2997 RMK AO2 SLP149 60000 T02330189 10233 20183 58035
KDCA 151652Z 20010KT 10SM OVC017 22/19 A3002 RMK AO2 SLP165 T02220189
KDCA 151552Z 19009KT 10SM OVC015 21/19 A3005 RMK AO2 SLP174 T02110189
KDCA 151452Z 19009KT 10SM OVC011 20/19 A3008 RMK AO2 DZE27 SLP184 P0000 60000 T02000189 58010
KDCA 151437Z 19006KT 10SM OVC011 20/19 A3008 RMK AO2 DZE27 P0000 T02000189
KDCA 151417Z 20009KT 10SM -DZ OVC009 19/19 A3009 RMK AO2 P0000 T01940189
KDCA 151352Z 19008KT 8SM -DZ BKN006 OVC012 19/19 A3010 RMK AO2 DZB31 SLP191 P0000 T01890189
KDCA 151252Z 20007KT 6SM BR OVC006 18/18 A3011 RMK AO2 DZE17 SLP195 P0000 T01830183
KDCA 151152Z 21011KT 7SM -DZ OVC005 18/18 A3011 RMK AO2 SLP194 P0000 60000 T01830183 10183 20178 56005 $
KDCA 151052Z 19007KT 3SM -DZ BR SCT002 OVC005 18/18 A3011 RMK AO2 DZB42 SLP195 P0000 T01780178 $
KDCA 151043Z 19005KT 4SM -DZ BR OVC005 18/18 A3011 RMK AO2 DZB42 P0000 T01780178 $